createdAt,value
2022-10-17T00:01:14.267Z,15.90
2022-10-17T00:03:42.673Z,15.90
2022-10-17T00:06:12.722Z,15.90
2022-10-17T00:08:42.495Z,15.90
2022-10-17T00:11:15.937Z,15.90
2022-10-17T00:13:44.531Z,15.90
2022-10-17T00:16:14.750Z,16.00
2022-10-17T00:18:43.038Z,16.00
2022-10-17T00:21:17.413Z,16.00
2022-10-17T00:23:45.772Z,16.00
2022-10-17T00:26:14.375Z,16.00
2022-10-17T00:28:42.530Z,16.00
2022-10-17T00:31:10.880Z,16.00
2022-10-17T00:33:41.434Z,16.00
2022-10-17T00:36:12.818Z,16.00
2022-10-17T00:38:42.074Z,16.00
2022-10-17T00:41:11.283Z,16.00
2022-10-17T00:43:57.907Z,16.00
2022-10-17T00:46:28.179Z,16.00
2022-10-17T00:48:59.999Z,16.00
2022-10-17T00:51:33.861Z,16.00
2022-10-17T00:54:04.083Z,16.00
2022-10-17T00:56:33.183Z,16.10
2022-10-17T00:59:01.926Z,16.10
2022-10-17T01:01:30.260Z,16.10
2022-10-17T01:03:59.961Z,16.10
2022-10-17T01:06:28.260Z,16.20
2022-10-17T01:08:56.815Z,16.20
2022-10-17T01:11:34.182Z,16.20
2022-10-17T01:14:07.942Z,16.20
2022-10-17T01:16:44.251Z,16.10
2022-10-17T01:19:33.269Z,16.10
2022-10-17T01:22:04.500Z,16.10
2022-10-17T01:24:50.074Z,16.10
2022-10-17T01:27:48.862Z,16.00
2022-10-17T01:30:51.964Z,16.00
2022-10-17T01:33:29.082Z,15.90
2022-10-17T01:36:04.819Z,15.90
2022-10-17T01:38:37.101Z,15.90
2022-10-17T01:41:11.650Z,15.90
2022-10-17T01:43:45.959Z,15.90
2022-10-17T01:46:19.511Z,15.90
2022-10-17T01:48:49.173Z,15.90
2022-10-17T01:51:22.479Z,15.90
2022-10-17T01:53:56.215Z,15.90
2022-10-17T01:56:28.752Z,15.90
2022-10-17T01:58:59.826Z,15.90
2022-10-17T02:01:30.857Z,15.90
2022-10-17T02:04:02.182Z,15.90
2022-10-17T02:06:30.403Z,15.90
2022-10-17T02:08:58.631Z,15.80
2022-10-17T02:11:28.239Z,15.80
2022-10-17T02:16:47.291Z,15.70
2022-10-17T02:19:42.247Z,15.70
2022-10-17T02:22:19.635Z,15.70
2022-10-17T02:24:53.756Z,15.70
2022-10-17T02:27:33.135Z,15.70
2022-10-17T02:30:06.596Z,15.70
2022-10-17T02:32:42.756Z,15.70
2022-10-17T02:35:16.833Z,15.60
2022-10-17T02:37:47.863Z,15.70
2022-10-17T02:40:20.230Z,15.70
2022-10-17T02:42:49.134Z,15.80
2022-10-17T02:45:17.943Z,15.80
2022-10-17T02:47:53.546Z,15.90
2022-10-17T02:53:00.699Z,16.00
2022-10-17T02:55:32.859Z,16.10
2022-10-17T02:58:05.755Z,16.10
2022-10-17T03:00:34.540Z,16.10
2022-10-17T03:03:02.714Z,16.10
2022-10-17T03:05:32.324Z,16.10
2022-10-17T03:08:00.457Z,16.20
2022-10-17T03:10:28.619Z,16.20
2022-10-17T03:12:56.804Z,16.20
2022-10-17T03:15:24.994Z,16.20
2022-10-17T03:17:53.203Z,16.20
2022-10-17T03:20:21.318Z,16.10
2022-10-17T03:22:50.910Z,16.10
2022-10-17T03:25:19.159Z,16.10
2022-10-17T03:27:47.530Z,16.10
2022-10-17T03:30:15.904Z,16.10
2022-10-17T03:32:44.275Z,16.10
2022-10-17T03:35:15.025Z,16.10
2022-10-17T03:37:43.629Z,16.10
2022-10-17T03:40:13.706Z,16.10
2022-10-17T03:42:41.990Z,16.20
2022-10-17T03:45:10.883Z,16.20
2022-10-17T03:47:39.202Z,16.20
2022-10-17T03:50:08.388Z,16.20
2022-10-17T03:52:36.620Z,16.20
2022-10-17T03:55:05.032Z,16.20
2022-10-17T03:57:36.135Z,16.20
2022-10-17T04:00:05.423Z,16.20
2022-10-17T04:02:35.153Z,16.10
2022-10-17T04:05:03.472Z,16.10
2022-10-17T04:07:31.669Z,16.10
2022-10-17T04:09:59.910Z,16.10
2022-10-17T04:12:28.542Z,16.10
2022-10-17T04:14:58.688Z,16.10
2022-10-17T04:17:26.874Z,16.10
2022-10-17T04:19:55.255Z,16.10
2022-10-17T04:22:23.555Z,16.00
2022-10-17T04:24:51.745Z,16.00
2022-10-17T04:27:20.039Z,16.00
2022-10-17T04:29:48.371Z,16.00
2022-10-17T04:32:18.446Z,16.00
2022-10-17T04:34:50.473Z,16.00
2022-10-17T04:37:19.003Z,16.00
2022-10-17T04:39:47.278Z,16.00
2022-10-17T04:42:15.525Z,15.90
2022-10-17T04:44:43.683Z,15.90
2022-10-17T04:47:11.895Z,15.90
2022-10-17T04:52:14.712Z,15.90
2022-10-17T04:54:42.957Z,15.90
2022-10-17T04:57:11.184Z,15.90
2022-10-17T04:59:39.841Z,15.90
2022-10-17T05:02:08.031Z,15.90
2022-10-17T05:04:36.294Z,15.90
2022-10-17T05:07:05.957Z,15.90
2022-10-17T05:09:34.145Z,15.90
2022-10-17T05:12:04.373Z,15.90
2022-10-17T05:14:34.943Z,15.90
2022-10-17T05:17:03.304Z,15.90
2022-10-17T05:19:31.584Z,15.90
2022-10-17T05:21:59.904Z,15.90
2022-10-17T05:24:29.491Z,15.90
2022-10-17T05:26:57.966Z,15.90
2022-10-17T05:29:26.223Z,15.90
2022-10-17T05:31:54.565Z,15.90
2022-10-17T05:34:23.100Z,15.90
2022-10-17T05:36:51.334Z,15.90
2022-10-17T05:39:20.370Z,15.90
2022-10-17T05:41:51.384Z,15.90
2022-10-17T05:44:19.615Z,15.90
2022-10-17T05:46:49.825Z,15.90
2022-10-17T05:49:31.908Z,15.90
2022-10-17T05:52:07.522Z,15.90
2022-10-17T05:54:35.932Z,15.90
2022-10-17T05:57:05.788Z,15.90
2022-10-17T05:59:33.978Z,15.90
2022-10-17T06:02:02.443Z,15.90
2022-10-17T06:04:30.702Z,16.00
2022-10-17T06:06:58.840Z,15.90
2022-10-17T06:09:27.091Z,15.90
2022-10-17T06:11:55.397Z,16.00
2022-10-17T06:14:25.028Z,16.00
2022-10-17T06:16:53.256Z,16.00
2022-10-17T06:19:21.444Z,16.10
2022-10-17T06:21:49.665Z,16.10
2022-10-17T06:24:17.979Z,16.10
2022-10-17T06:26:47.664Z,16.20
2022-10-17T06:29:16.204Z,16.20
2022-10-17T06:31:45.964Z,16.20
2022-10-17T06:34:14.376Z,16.20
2022-10-17T06:36:42.687Z,16.30
2022-10-17T06:39:11.018Z,16.30
2022-10-17T06:41:39.775Z,16.40
2022-10-17T06:44:11.340Z,16.40
2022-10-17T06:46:39.995Z,16.40
2022-10-17T06:49:10.987Z,16.40
2022-10-17T06:51:39.392Z,16.50
2022-10-17T06:54:07.636Z,16.50
2022-10-17T06:56:35.924Z,16.50
2022-10-17T06:59:04.230Z,16.60
2022-10-17T07:01:32.911Z,16.60
2022-10-17T07:04:01.158Z,16.60
2022-10-17T07:06:30.893Z,16.60
2022-10-17T07:08:59.521Z,16.70
2022-10-17T07:11:27.744Z,16.70
2022-10-17T07:13:56.033Z,16.80
2022-10-17T07:16:24.365Z,16.80
2022-10-17T07:18:54.349Z,16.90
2022-10-17T07:21:22.745Z,16.90
2022-10-17T07:23:52.416Z,17.00
2022-10-17T07:26:21.092Z,17.00
2022-10-17T07:28:53.983Z,17.10
2022-10-17T07:31:23.613Z,17.10
2022-10-17T07:33:52.485Z,17.10
2022-10-17T07:36:21.032Z,17.10
2022-10-17T07:38:49.317Z,17.20
2022-10-17T07:41:21.709Z,17.20
2022-10-17T07:43:50.554Z,17.30
2022-10-17T07:46:18.821Z,17.30
2022-10-17T07:48:47.013Z,17.30
2022-10-17T07:51:15.463Z,17.40
2022-10-17T07:53:47.961Z,17.40
2022-10-17T07:56:18.605Z,17.50
2022-10-17T07:58:48.372Z,17.50
2022-10-17T08:01:17.662Z,17.50
2022-10-17T08:03:48.646Z,17.60
2022-10-17T08:06:17.739Z,17.60
2022-10-17T08:08:46.394Z,17.60
2022-10-17T08:11:16.575Z,17.60
2022-10-17T08:13:49.297Z,17.70
2022-10-17T08:16:18.107Z,17.70
2022-10-17T08:18:48.850Z,17.80
2022-10-17T08:21:17.448Z,17.80
2022-10-17T08:23:46.201Z,17.80
2022-10-17T08:26:17.471Z,17.90
2022-10-17T08:28:48.395Z,17.90
2022-10-17T08:31:20.364Z,18.00
2022-10-17T08:33:49.603Z,18.00
2022-10-17T08:36:20.396Z,18.10
2022-10-17T08:38:52.825Z,18.10
2022-10-17T08:41:45.661Z,18.20
2022-10-17T08:44:25.839Z,18.20
2022-10-17T08:46:59.158Z,18.20
2022-10-17T08:49:35.075Z,18.30
2022-10-17T08:52:09.040Z,18.30
2022-10-17T08:54:43.516Z,18.30
2022-10-17T08:57:17.440Z,18.40
2022-10-17T08:59:54.400Z,18.40
2022-10-17T09:02:48.303Z,18.40
2022-10-17T09:05:33.708Z,18.60
2022-10-17T09:08:15.518Z,18.60
2022-10-17T09:10:54.251Z,18.60
2022-10-17T09:13:43.604Z,18.70
2022-10-17T09:16:34.342Z,18.80
2022-10-17T09:19:13.254Z,18.80
2022-10-17T09:21:46.522Z,18.90
2022-10-17T09:24:21.177Z,18.90
2022-10-17T09:26:49.958Z,19.00
2022-10-17T09:29:24.356Z,19.10
2022-10-17T09:32:03.727Z,19.10
2022-10-17T09:34:34.261Z,19.10
2022-10-17T09:37:15.140Z,19.20
2022-10-17T09:39:44.827Z,19.30
2022-10-17T09:42:21.745Z,19.30
2022-10-17T09:44:59.734Z,19.40
2022-10-17T09:47:33.702Z,19.40
2022-10-17T09:50:03.686Z,19.50
2022-10-17T09:52:36.643Z,19.60
2022-10-17T09:55:08.309Z,19.60
2022-10-17T09:57:58.787Z,19.70
2022-10-17T10:00:30.229Z,19.80
2022-10-17T10:03:19.310Z,19.80
2022-10-17T10:06:04.447Z,19.90
2022-10-17T10:08:35.433Z,20.00
2022-10-17T10:11:13.367Z,20.00
2022-10-17T10:13:44.180Z,20.20
2022-10-17T10:16:20.083Z,20.30
2022-10-17T10:18:52.750Z,20.30
2022-10-17T10:21:24.354Z,20.50
2022-10-17T10:24:10.958Z,20.60
2022-10-17T10:26:42.753Z,20.70
2022-10-17T10:29:26.177Z,20.80
2022-10-17T10:31:58.386Z,21.00
2022-10-17T10:34:31.575Z,21.00
2022-10-17T10:37:11.366Z,21.10
2022-10-17T10:39:51.890Z,21.20
2022-10-17T10:42:25.838Z,21.20
2022-10-17T10:44:58.172Z,21.30
2022-10-17T10:47:29.159Z,21.30
2022-10-17T10:50:31.883Z,21.40
2022-10-17T10:53:15.946Z,21.40
2022-10-17T10:55:52.424Z,21.40
2022-10-17T10:58:31.482Z,21.50
2022-10-17T11:01:08.772Z,21.50
2022-10-17T11:03:57.703Z,21.50
2022-10-17T11:06:30.340Z,21.50
2022-10-17T11:09:16.058Z,21.60
2022-10-17T11:11:48.832Z,21.60
2022-10-17T11:14:28.385Z,21.70
2022-10-17T11:17:05.648Z,21.80
2022-10-17T11:19:49.202Z,21.80
2022-10-17T11:22:28.302Z,21.90
2022-10-17T11:25:01.654Z,21.80
2022-10-17T11:27:31.782Z,21.90
2022-10-17T11:30:04.191Z,22.00
2022-10-17T11:32:39.293Z,22.00
2022-10-17T11:35:16.596Z,22.00
2022-10-17T11:37:51.715Z,22.10
2022-10-17T11:40:24.750Z,22.10
2022-10-17T11:43:11.048Z,22.20
2022-10-17T11:45:45.883Z,22.20
2022-10-17T11:48:18.990Z,22.30
2022-10-17T11:56:50.751Z,22.50
2022-10-17T11:59:49.445Z,22.60
2022-10-17T12:02:29.206Z,22.60
2022-10-17T12:05:07.342Z,22.70
2022-10-17T12:07:45.062Z,22.80
2022-10-17T12:10:27.486Z,22.80
2022-10-17T12:12:55.928Z,22.90
2022-10-17T12:15:32.573Z,22.90
2022-10-17T12:18:03.174Z,23.00
2022-10-17T12:20:35.728Z,23.00
2022-10-17T12:23:26.102Z,23.10
2022-10-17T12:26:01.468Z,23.20
2022-10-17T12:28:34.190Z,23.20
2022-10-17T12:31:06.109Z,23.20
2022-10-17T12:33:40.042Z,23.20
2022-10-17T12:36:40.693Z,23.20
2022-10-17T12:39:44.229Z,23.20
2022-10-17T12:42:36.683Z,23.20
2022-10-17T12:45:46.553Z,23.10
2022-10-17T12:48:19.655Z,23.10
2022-10-17T12:51:30.667Z,23.10
2022-10-17T12:54:01.342Z,23.20
2022-10-17T12:56:40.000Z,23.20
2022-10-17T12:59:15.505Z,23.20
2022-10-17T13:01:49.466Z,23.30
2022-10-17T13:04:22.276Z,23.40
2022-10-17T13:06:54.571Z,23.50
2022-10-17T13:09:28.483Z,23.50
2022-10-17T13:12:04.101Z,23.50
2022-10-17T13:14:39.000Z,23.50
2022-10-17T13:17:24.773Z,23.50
2022-10-17T13:20:04.869Z,23.50
2022-10-17T13:22:34.382Z,23.50
2022-10-17T13:25:11.362Z,23.60
2022-10-17T13:27:43.577Z,23.60
2022-10-17T13:30:39.231Z,23.60
2022-10-17T13:33:30.283Z,23.60
2022-10-17T13:36:07.081Z,23.60
2022-10-17T13:38:41.893Z,23.60
2022-10-17T13:41:35.866Z,23.60
2022-10-17T13:44:09.096Z,23.70
2022-10-17T13:46:42.838Z,23.70
2022-10-17T13:49:24.411Z,23.70
2022-10-17T13:51:56.405Z,23.70
2022-10-17T13:54:40.502Z,23.70
2022-10-17T13:57:20.745Z,23.70
2022-10-17T13:59:57.715Z,23.70
2022-10-17T14:02:32.011Z,23.70
2022-10-17T14:05:23.121Z,23.70
2022-10-17T14:10:46.114Z,23.60
2022-10-17T14:13:24.534Z,23.60
2022-10-17T14:15:54.284Z,23.70
2022-10-17T14:18:30.841Z,23.60
2022-10-17T14:23:54.947Z,23.60
2022-10-17T14:26:25.878Z,23.60
2022-10-17T14:29:05.966Z,23.60
2022-10-17T14:31:36.621Z,23.60
2022-10-17T14:34:07.241Z,23.60
2022-10-17T14:36:39.227Z,23.60
2022-10-17T14:39:18.175Z,23.50
2022-10-17T14:41:50.812Z,23.50
2022-10-17T14:44:24.971Z,23.50
2022-10-17T14:46:58.266Z,23.50
2022-10-17T14:49:35.592Z,23.50
2022-10-17T14:52:25.028Z,23.40
2022-10-17T14:54:56.926Z,23.40
2022-10-17T14:57:32.100Z,23.30
2022-10-17T15:00:00.901Z,23.20
2022-10-17T15:02:34.727Z,23.20
2022-10-17T15:05:13.001Z,23.10
2022-10-17T15:07:42.279Z,23.10
2022-10-17T15:10:37.516Z,23.00
2022-10-17T15:15:58.487Z,23.00
2022-10-17T15:18:27.023Z,22.90
2022-10-17T15:21:04.928Z,22.90
2022-10-17T15:23:33.855Z,22.90
2022-10-17T15:26:03.207Z,22.80
2022-10-17T15:28:31.884Z,22.80
2022-10-17T15:31:02.769Z,22.80
2022-10-17T15:33:33.453Z,22.80
2022-10-17T15:36:03.895Z,22.80
2022-10-17T15:38:41.635Z,22.70
2022-10-17T15:41:13.945Z,22.70
2022-10-17T15:43:48.888Z,22.60
2022-10-17T15:46:30.818Z,22.60
2022-10-17T15:49:03.871Z,22.50
2022-10-17T15:51:34.105Z,22.50
2022-10-17T15:54:08.861Z,22.40
2022-10-17T15:56:40.495Z,22.40
2022-10-17T15:59:13.988Z,22.30
2022-10-17T16:01:45.400Z,22.30
2022-10-17T16:04:18.765Z,22.30
2022-10-17T16:06:49.424Z,22.20
2022-10-17T16:09:18.035Z,22.10
2022-10-17T16:11:47.250Z,22.10
2022-10-17T16:14:20.425Z,22.10
2022-10-17T16:16:54.648Z,22.10
2022-10-17T16:19:26.605Z,22.00
2022-10-17T16:22:04.555Z,22.00
2022-10-17T16:24:33.772Z,22.00
2022-10-17T16:27:02.333Z,21.90
2022-10-17T16:29:30.715Z,21.90
2022-10-17T16:31:59.059Z,21.80
2022-10-17T16:34:27.304Z,21.80
2022-10-17T16:36:57.195Z,21.80
2022-10-17T16:39:30.932Z,21.80
2022-10-17T16:41:59.558Z,21.70
2022-10-17T16:44:27.936Z,21.70
2022-10-17T16:46:56.293Z,21.70
2022-10-17T16:49:24.564Z,21.60
2022-10-17T16:51:52.802Z,21.60
2022-10-17T16:54:22.450Z,21.60
2022-10-17T16:56:50.735Z,21.60
2022-10-17T16:59:18.974Z,21.50
2022-10-17T17:10:13.818Z,21.40
2022-10-17T17:12:43.712Z,21.30
2022-10-17T17:15:12.049Z,21.20
2022-10-17T17:17:56.308Z,21.20
2022-10-17T17:20:25.196Z,21.20
2022-10-17T17:22:53.510Z,21.10
2022-10-17T17:25:22.714Z,21.10
2022-10-17T17:27:52.433Z,21.00
2022-10-17T17:30:20.799Z,21.00
2022-10-17T17:32:49.346Z,21.00
2022-10-17T17:35:17.839Z,21.00
2022-10-17T17:37:46.180Z,20.90
2022-10-17T17:40:15.353Z,20.90
2022-10-17T17:42:43.933Z,20.90
2022-10-17T17:45:14.168Z,20.80
2022-10-17T17:47:42.574Z,20.80
2022-10-17T17:50:11.258Z,20.80
2022-10-17T17:52:42.049Z,20.70
2022-10-17T17:55:11.119Z,20.70
2022-10-17T17:57:39.712Z,20.70
2022-10-17T18:00:09.558Z,20.60
2022-10-17T18:02:42.203Z,20.60
2022-10-17T18:05:12.808Z,20.60
2022-10-17T18:07:41.276Z,20.50
2022-10-17T18:12:38.919Z,20.50
2022-10-17T18:15:08.320Z,20.50
2022-10-17T18:17:38.414Z,20.40
2022-10-17T18:20:07.652Z,20.40
2022-10-17T18:22:36.884Z,20.40
2022-10-17T18:25:06.629Z,20.40
2022-10-17T18:27:34.989Z,20.40
2022-10-17T18:30:03.351Z,20.30
2022-10-17T18:32:32.715Z,20.30
2022-10-17T18:35:02.697Z,20.30
2022-10-17T18:37:30.994Z,20.30
2022-10-17T18:39:59.348Z,20.30
2022-10-17T18:42:27.862Z,20.20
2022-10-17T18:44:56.453Z,20.20
2022-10-17T18:47:24.832Z,20.10
2022-10-17T18:49:53.199Z,20.10
2022-10-17T18:52:23.861Z,20.10
2022-10-17T18:54:52.232Z,20.00
2022-10-17T18:57:23.889Z,20.00
2022-10-17T18:59:54.490Z,20.00
2022-10-17T19:02:22.823Z,19.90
2022-10-17T19:04:51.252Z,19.90
2022-10-17T19:07:20.320Z,19.90
2022-10-17T19:09:51.143Z,19.90
2022-10-17T19:12:19.475Z,19.90
2022-10-17T19:14:50.002Z,19.90
2022-10-17T19:17:18.416Z,19.80
2022-10-17T19:19:50.175Z,19.80
2022-10-17T19:22:18.661Z,19.80
2022-10-17T19:24:47.076Z,19.80
2022-10-17T19:27:16.843Z,19.80
2022-10-17T19:29:45.442Z,19.90
2022-10-17T19:32:16.761Z,19.90
2022-10-17T19:34:47.780Z,19.90
2022-10-17T19:37:16.037Z,19.90
2022-10-17T19:39:44.306Z,19.90
2022-10-17T19:42:12.621Z,19.90
2022-10-17T19:44:42.531Z,19.90
2022-10-17T19:47:11.047Z,19.80
2022-10-17T19:49:39.344Z,19.80
2022-10-17T19:52:07.799Z,19.80
2022-10-17T19:54:36.067Z,19.70
2022-10-17T19:57:08.073Z,19.70
2022-10-17T19:59:39.010Z,19.70
2022-10-17T20:02:08.687Z,19.70
2022-10-17T20:04:45.344Z,19.70
2022-10-17T20:07:25.313Z,19.60
2022-10-17T20:09:53.736Z,19.60
2022-10-17T20:12:22.038Z,19.60
2022-10-17T20:14:50.322Z,19.70
2022-10-17T20:17:20.087Z,19.60
2022-10-17T20:19:48.430Z,19.70
2022-10-17T20:22:16.906Z,19.70
2022-10-17T20:24:45.392Z,19.60
2022-10-17T20:27:13.684Z,19.60
2022-10-17T20:29:41.946Z,19.60
2022-10-17T20:32:10.321Z,19.60
2022-10-17T20:34:40.312Z,19.60
2022-10-17T20:37:08.609Z,19.50
2022-10-17T20:39:36.859Z,19.50
2022-10-17T20:42:05.214Z,19.50
2022-10-17T20:44:33.749Z,19.40
2022-10-17T20:47:02.931Z,19.40
2022-10-17T20:49:32.338Z,19.40
2022-10-17T20:52:02.566Z,19.30
2022-10-17T20:54:31.178Z,19.30
2022-10-17T20:57:02.463Z,19.30
2022-10-17T20:59:34.454Z,19.30
2022-10-17T21:02:03.137Z,19.20
2022-10-17T21:04:47.405Z,19.20
2022-10-17T21:07:17.437Z,19.20
2022-10-17T21:09:46.728Z,19.10
2022-10-17T21:12:21.836Z,19.10
2022-10-17T21:14:59.854Z,19.00
2022-10-17T21:17:28.376Z,19.00
2022-10-17T21:19:57.163Z,19.00
2022-10-17T21:22:27.380Z,19.00
2022-10-17T21:24:55.908Z,18.90
2022-10-17T21:27:24.234Z,18.90
2022-10-17T21:29:52.530Z,18.90
2022-10-17T21:32:33.393Z,18.90
2022-10-17T21:35:09.701Z,18.90
2022-10-17T21:37:39.404Z,18.80
2022-10-17T21:40:08.930Z,18.80
2022-10-17T21:42:37.439Z,18.80
2022-10-17T21:45:14.993Z,18.80
2022-10-17T21:48:11.626Z,18.80
2022-10-17T21:50:36.781Z,18.70
2022-10-17T21:53:06.758Z,18.70
2022-10-17T21:55:37.547Z,18.70
2022-10-17T21:58:06.202Z,18.70
2022-10-17T22:00:34.474Z,18.60
2022-10-17T22:03:02.757Z,18.60
2022-10-17T22:05:32.607Z,18.70
2022-10-17T22:08:00.981Z,18.70
2022-10-17T22:10:30.685Z,18.70
2022-10-17T22:12:58.977Z,18.70
2022-10-17T22:15:27.283Z,18.80
2022-10-17T22:17:56.402Z,18.80
2022-10-17T22:20:24.628Z,18.80
2022-10-17T22:22:53.037Z,18.80
2022-10-17T22:25:21.362Z,18.80
2022-10-17T22:27:51.057Z,18.80
2022-10-17T22:30:19.655Z,18.80
2022-10-17T22:32:47.947Z,18.80
2022-10-17T22:35:16.528Z,18.80
2022-10-17T22:37:44.790Z,18.80
2022-10-17T22:40:13.453Z,18.80
2022-10-17T22:42:41.897Z,18.80
2022-10-17T22:45:12.014Z,18.80
2022-10-17T22:47:40.250Z,18.90
2022-10-17T22:50:08.971Z,18.90
2022-10-17T22:52:37.195Z,19.00
2022-10-17T22:55:09.082Z,19.00
2022-10-17T22:57:37.366Z,19.00
2022-10-17T23:00:06.414Z,19.10
2022-10-17T23:02:36.180Z,19.10
2022-10-17T23:05:05.592Z,19.10
2022-10-17T23:07:34.731Z,19.10
2022-10-17T23:10:03.177Z,19.10
2022-10-17T23:12:32.260Z,19.10
2022-10-17T23:15:00.629Z,19.10
2022-10-17T23:17:28.906Z,19.10
2022-10-17T23:19:58.777Z,19.10
2022-10-17T23:22:27.111Z,19.20
2022-10-17T23:24:55.339Z,19.20
2022-10-17T23:27:23.716Z,19.30
2022-10-17T23:29:52.063Z,19.30
2022-10-17T23:32:21.615Z,19.30
2022-10-17T23:34:50.428Z,19.30
2022-10-17T23:37:20.484Z,19.30
2022-10-17T23:39:48.756Z,19.30
2022-10-17T23:42:17.045Z,19.30
2022-10-17T23:44:45.586Z,19.40
2022-10-17T23:47:14.422Z,19.30
2022-10-17T23:49:42.659Z,19.40
2022-10-17T23:52:11.097Z,19.30
2022-10-17T23:57:10.280Z,19.30
2022-10-17T23:59:38.743Z,19.30
